Time;durP1;ratioP1;P1;durP2;ratioP2;P2;SDS_P1;SDS_P2;PMS_P1;PMS_P2;Temp;Humidity;BMP_temperature;BMP_pressure;BME280_temperature;BME280_humidity;BME280_pressure;Samples;Min_cycle;Max_cycle;Signal;HPM_P1;HPM_P2
2022/12/13 00:00:13;;;;;;;11.95;5.63;;;;;;;-0.79;79.95;93348.25;6194174;23;20001;-75
2022/12/13 00:02:42;;;;;;;11.60;5.22;;;;;;;-0.76;79.88;93342.50;6194298;23;19996;-75
2022/12/13 00:05:08;;;;;;;10.73;5.10;;;;;;;-0.75;79.63;93346.69;6193743;23;20005;-75
2022/12/13 00:07:34;;;;;;;12.07;6.10;;;;;;;-0.75;79.35;93341.47;6167783;23;20004;-75
2022/12/13 00:10:02;;;;;;;10.85;5.47;;;;;;;-0.66;79.65;93342.53;6194165;23;20227;-75
2022/12/13 00:12:27;;;;;;;9.57;5.90;;;;;;;-0.61;79.14;93344.41;6194158;23;20063;-75
2022/12/13 00:14:52;;;;;;;9.38;5.78;;;;;;;-0.59;79.25;93359.81;6194078;23;20302;-75
2022/12/13 00:17:18;;;;;;;6.78;4.07;;;;;;;-0.64;78.14;93350.91;6167706;23;20257;-76
2022/12/13 00:19:46;;;;;;;8.45;4.38;;;;;;;-0.67;77.29;93345.41;6194169;23;20020;-77
2022/12/13 00:22:11;;;;;;;6.82;3.35;;;;;;;-0.63;77.28;93347.28;6193954;23;20013;-76
2022/12/13 00:24:37;;;;;;;5.63;2.72;;;;;;;-0.59;76.81;93351.97;6193606;23;20001;-76
2022/12/13 00:27:03;;;;;;;6.13;3.65;;;;;;;-0.66;77.12;93347.75;6194336;23;20020;-75
2022/12/13 00:29:28;;;;;;;7.22;3.15;;;;;;;-0.82;77.56;93359.22;6168008;23;20298;-76
2022/12/13 00:31:53;;;;;;;9.90;3.90;;;;;;;-0.77;77.76;93353.19;6194239;23;20211;-77
2022/12/13 00:34:19;;;;;;;7.68;4.32;;;;;;;-0.77;77.17;93355.81;6194149;23;20009;-77
2022/12/13 00:36:45;;;;;;;8.80;3.92;;;;;;;-0.96;78.06;93347.63;6193947;23;20067;-77
2022/12/13 00:39:12;;;;;;;8.45;4.88;;;;;;;-1.11;79.17;93358.78;6194244;23;20005;-77
2022/12/13 00:41:38;;;;;;;9.15;3.50;;;;;;;-1.19;79.03;93351.41;6194394;23;20001;-77
2022/12/13 00:44:05;;;;;;;6.53;3.35;;;;;;;-1.31;78.82;93349.00;6194178;23;20012;-77
2022/12/13 00:46:31;;;;;;;12.15;4.30;;;;;;;-1.35;79.52;93345.28;6194119;23;19993;-77
2022/12/13 00:48:59;;;;;;;6.78;3.15;;;;;;;-1.39;78.44;93345.00;6193356;23;20218;-76
2022/12/13 00:51:26;;;;;;;7.85;3.72;;;;;;;-1.40;78.98;93356.53;6195917;23;20299;-77
2022/12/13 00:53:53;;;;;;;6.38;3.25;;;;;;;-1.50;79.19;93349.38;6196100;23;20043;-76
2022/12/13 00:56:22;;;;;;;6.28;3.13;;;;;;;-1.57;78.68;93359.25;6195737;23;20005;-76
2022/12/13 00:58:49;;;;;;;6.53;3.67;;;;;;;-1.58;78.34;93362.13;6195885;23;20001;-77
2022/12/13 01:01:16;;;;;;;7.20;3.42;;;;;;;-1.50;78.59;93353.81;6195900;23;20001;-76
2022/12/13 01:03:41;;;;;;;6.55;3.45;;;;;;;-1.47;76.10;93361.94;6169539;23;20004;-77
2022/12/13 01:06:12;;;;;;;6.28;3.40;;;;;;;-1.30;77.64;93353.19;6195973;23;20063;-76
2022/12/13 01:08:38;;;;;;;11.07;3.42;;;;;;;-1.25;77.24;93353.22;6196018;23;20299;-77
2022/12/13 01:11:04;;;;;;;10.25;4.28;;;;;;;-1.25;77.90;93356.59;6195899;23;20000;-76
2022/12/13 01:13:30;;;;;;;9.85;4.32;;;;;;;-1.22;76.56;93355.34;6169543;23;20013;-77
2022/12/13 01:15:56;;;;;;;6.30;3.63;;;;;;;-1.23;76.46;93359.75;6195386;23;20027;-77
2022/12/13 01:18:21;;;;;;;6.80;3.53;;;;;;;-1.22;77.51;93365.78;6195574;23;20004;-77
2022/12/13 01:20:58;;;;;;;11.20;3.92;;;;;;;-1.27;78.58;93368.38;6195753;23;19993;-77
2022/12/13 01:23:24;;;;;;;10.93;4.05;;;;;;;-1.27;79.28;93368.38;6195905;23;20064;-78
2022/12/13 01:25:49;;;;;;;7.63;3.72;;;;;;;-1.31;78.74;93359.44;6195587;23;19993;-77
2022/12/13 01:28:15;;;;;;;7.35;3.90;;;;;;;-1.31;78.77;93356.81;6195637;23;20201;-77
2022/12/13 01:30:40;;;;;;;11.32;4.82;;;;;;;-1.30;78.70;93363.66;6195796;23;20179;-77
2022/12/13 01:33:06;;;;;;;8.52;4.00;;;;;;;-1.30;78.12;93361.03;6195721;23;20004;-76
2022/12/13 01:35:33;;;;;;;7.82;4.65;;;;;;;-1.32;78.53;93355.25;6195428;23;20016;-77
2022/12/13 01:37:59;;;;;;;7.53;4.28;;;;;;;-1.35;78.27;93353.16;6195508;23;20001;-76
2022/12/13 01:40:24;;;;;;;8.88;4.05;;;;;;;-1.36;78.03;93362.00;6168994;23;20008;-77
2022/12/13 01:42:49;;;;;;;9.95;4.18;;;;;;;-1.40;78.60;93353.91;6195428;23;20051;-78
2022/12/13 01:45:25;;;;;;;9.40;4.35;;;;;;;-1.36;78.57;93370.66;6195590;23;20310;-78
2022/12/13 01:47:57;;;;;;;10.02;5.00;;;;;;;-1.42;78.95;93355.97;6195617;23;20281;-78
2022/12/13 01:50:31;;;;;;;9.43;4.85;;;;;;;-1.41;79.59;93363.56;6195546;23;20075;-78
2022/12/13 01:52:58;;;;;;;10.07;5.72;;;;;;;-1.42;79.74;93356.75;6169039;23;20008;-76
2022/12/13 01:55:28;;;;;;;11.05;4.97;;;;;;;-1.38;79.53;93367.50;6195411;23;20060;-76
2022/12/13 01:57:58;;;;;;;10.02;5.28;;;;;;;-1.43;78.84;93362.22;6195284;23;20016;-76
2022/12/13 02:00:25;;;;;;;13.13;6.03;;;;;;;-1.49;79.56;93360.63;6195450;23;20238;-76
2022/12/13 02:02:53;;;;;;;11.70;5.32;;;;;;;-1.56;80.40;93366.06;6195126;23;19996;-77
2022/12/13 02:05:32;;;;;;;13.90;6.50;;;;;;;-1.60;80.51;93364.22;6194955;23;20242;-77
2022/12/13 02:08:00;;;;;;;14.43;5.32;;;;;;;-1.68;80.61;93357.59;6195459;23;20000;-77
2022/12/13 02:10:26;;;;;;;12.00;6.13;;;;;;;-1.69;79.95;93361.25;6195281;23;20007;-77
2022/12/13 02:12:51;;;;;;;11.63;5.85;;;;;;;-1.75;79.81;93368.28;6195279;23;20042;-77
2022/12/13 02:15:18;;;;;;;13.25;6.43;;;;;;;-1.83;80.04;93359.06;6195012;23;20227;-77
2022/12/13 02:17:49;;;;;;;13.07;5.78;;;;;;;-1.94;80.75;93354.75;6195017;23;20005;-76
2022/12/13 02:20:33;;;;;;;11.33;6.70;;;;;;;-2.06;80.46;93351.50;6195259;23;20005;-76
2022/12/13 02:23:01;;;;;;;12.85;6.13;;;;;;;-2.10;81.13;93350.44;6195268;23;20179;-77
2022/12/13 02:25:59;;;;;;;11.63;5.90;;;;;;;-2.10;81.15;93356.44;6168760;23;20199;-77
2022/12/13 02:28:35;;;;;;;11.95;5.63;;;;;;;-2.10;80.98;93359.03;6195020;23;20055;-76
2022/12/13 02:31:04;;;;;;;15.38;6.07;;;;;;;-2.05;79.83;93364.34;6194806;23;20374;-76
2022/12/13 02:33:40;;;;;;;13.65;6.28;;;;;;;-2.05;80.54;93358.31;6195064;23;20009;-76
2022/12/13 02:36:10;;;;;;;14.07;6.22;;;;;;;-1.97;80.74;93368.34;6194870;23;20227;-76
2022/12/13 02:38:45;;;;;;;17.27;6.97;;;;;;;-1.98;80.64;93373.78;6195363;23;20203;-76
2022/12/13 02:41:21;;;;;;;13.77;6.22;;;;;;;-1.97;80.90;93376.16;6194998;23;20021;-76
2022/12/13 02:43:53;;;;;;;14.02;6.90;;;;;;;-1.97;81.12;93372.75;6194846;23;20004;-76
2022/12/13 02:46:20;;;;;;;;;;;;;;;-1.94;80.51;93370.44;6169122;23;20076;-76
2022/12/13 02:48:47;;;;;;;17.77;6.60;;;;;;;-1.97;80.68;93367.53;6194897;23;19951;-76
2022/12/13 02:51:15;;;;;;;11.43;5.80;;;;;;;-1.92;80.26;93368.38;6194702;23;20039;-76
2022/12/13 02:53:42;;;;;;;11.88;6.45;;;;;;;-1.91;79.96;93377.00;6194581;23;20007;-76
2022/12/13 02:56:07;;;;;;;11.73;5.70;;;;;;;-1.91;79.88;93372.56;6168537;23;20299;-77
2022/12/13 02:58:36;;;;;;;12.40;5.78;;;;;;;-1.87;79.57;93375.47;6194695;23;20003;-77
2022/12/13 03:01:23;;;;;;;12.07;6.03;;;;;;;-1.86;79.05;93383.03;6194697;23;20009;-77
2022/12/13 03:04:01;;;;;;;11.55;6.30;;;;;;;-1.88;79.06;93379.13;6194843;23;20000;-76
2022/12/13 03:06:57;;;;;;;16.60;6.05;;;;;;;-1.91;79.14;93385.63;6194401;23;20009;-76
2022/12/13 03:09:28;;;;;;;14.95;7.55;;;;;;;-1.90;79.35;93386.41;6130760;23;20020;-76
2022/12/13 03:14:45;;;;;;;13.57;6.82;;;;;;;-1.93;79.33;93382.47;6194154;23;20012;-77
2022/12/13 03:17:15;;;;;;;15.70;7.07;;;;;;;-1.95;79.35;93392.38;6194743;23;20005;-77
2022/12/13 03:19:41;;;;;;;16.33;6.07;;;;;;;-1.99;78.88;93388.69;6194627;23;20171;-77
2022/12/13 03:22:06;;;;;;;14.38;6.97;;;;;;;-2.08;78.91;93396.16;6194640;23;19997;-77
2022/12/13 03:24:32;;;;;;;13.32;6.35;;;;;;;-2.09;78.85;93383.34;6194407;23;20020;-77
2022/12/13 03:26:58;;;;;;;14.55;6.20;;;;;;;-2.15;78.61;93384.34;6194502;23;20330;-77
2022/12/13 03:29:23;;;;;;;13.38;6.80;;;;;;;-2.15;78.69;93386.94;6194409;23;20021;-77
2022/12/13 03:31:48;;;;;;;11.63;5.72;;;;;;;-2.17;78.76;93384.56;6194509;23;20287;-77
2022/12/13 03:34:14;;;;;;;13.07;6.18;;;;;;;-2.17;78.35;93387.19;6167990;23;20047;-78
2022/12/13 03:36:39;;;;;;;11.60;6.35;;;;;;;-2.19;77.79;93389.25;6168243;23;20005;-77
2022/12/13 03:39:05;;;;;;;15.98;6.05;;;;;;;-2.23;77.75;93391.56;6194330;23;20236;-78
2022/12/13 03:41:31;;;;;;;10.50;5.50;;;;;;;-2.25;77.69;93385.78;6194444;23;20218;-76
2022/12/13 03:44:04;;;;;;;10.15;5.72;;;;;;;-2.24;77.89;93379.56;6194504;23;20056;-76
2022/12/13 03:46:29;;;;;;;12.77;6.53;;;;;;;-2.22;78.01;93380.09;6194250;23;20052;-76
2022/12/13 03:48:55;;;;;;;13.13;6.95;;;;;;;-2.18;77.62;93379.59;6194219;23;20004;-76
2022/12/13 03:51:20;;;;;;;12.85;6.45;;;;;;;-2.24;77.43;93383.97;6168193;23;19997;-76
2022/12/13 03:53:46;;;;;;;13.90;5.53;;;;;;;-2.28;77.79;93388.09;6194717;23;19997;-76
2022/12/13 03:56:11;;;;;;;15.05;5.28;;;;;;;-2.36;77.38;93398.97;6194325;23;20198;-76
2022/12/13 03:58:37;;;;;;;10.20;5.07;;;;;;;-2.48;76.66;93399.13;6194298;23;20318;-76
2022/12/13 04:01:11;;;;;;;8.55;4.60;;;;;;;-2.54;76.66;93403.50;6193982;23;20008;-76
2022/12/13 04:03:37;;;;;;;11.95;5.30;;;;;;;-2.56;76.79;93410.78;6194391;23;20314;-75
2022/12/13 04:06:04;;;;;;;13.45;5.07;;;;;;;-2.68;76.46;93404.88;6193876;23;20009;-77
2022/12/13 04:08:29;;;;;;;8.05;4.38;;;;;;;-2.75;75.28;93409.47;6194221;23;19993;-77
2022/12/13 04:10:54;;;;;;;9.00;4.22;;;;;;;-2.79;75.55;93410.97;6194035;23;20001;-77
2022/12/13 04:13:31;;;;;;;9.27;3.40;;;;;;;-2.75;75.55;93417.28;6194104;23;20004;-77
2022/12/13 04:15:57;;;;;;;6.50;3.45;;;;;;;-2.75;74.65;93417.28;6194104;23;20005;-76
2022/12/13 04:18:22;;;;;;;8.90;3.55;;;;;;;-2.70;74.87;93415.56;6194201;23;20238;-76
2022/12/13 04:20:48;;;;;;;8.15;3.92;;;;;;;-2.66;73.96;93416.66;6194331;23;20060;-77
2022/12/13 04:23:14;;;;;;;8.07;3.72;;;;;;;-2.65;71.98;93428.66;6194036;23;20028;-78
2022/12/13 04:25:40;;;;;;;8.73;3.20;;;;;;;-2.58;70.30;93422.50;6195527;23;20015;-77
2022/12/13 04:28:06;;;;;;;4.45;2.40;;;;;;;-2.51;71.13;93433.53;6196129;23;20009;-77
2022/12/13 04:30:33;;;;;;;6.63;2.83;;;;;;;-2.54;69.89;93426.97;6196161;23;20084;-77
2022/12/13 04:32:58;;;;;;;4.90;2.20;;;;;;;-2.63;69.96;93437.06;6195841;23;20024;-77
2022/12/13 04:35:24;;;;;;;5.13;2.38;;;;;;;-2.69;70.50;93442.41;6195878;23;20004;-76
2022/12/13 04:37:49;;;;;;;8.00;2.63;;;;;;;-2.70;71.51;93452.06;6196071;23;20016;-76
2022/12/13 04:40:15;;;;;;;6.20;2.60;;;;;;;-2.63;71.97;93454.50;6196083;23;20172;-76
2022/12/13 04:42:40;;;;;;;5.88;2.85;;;;;;;-2.62;71.71;93464.72;6196224;23;20294;-76
2022/12/13 04:45:07;;;;;;;7.40;3.08;;;;;;;-2.51;72.33;93457.00;6196147;23;20334;-77
2022/12/13 04:47:32;;;;;;;13.98;4.60;;;;;;;-2.51;73.38;93457.00;6196000;23;20176;-78
2022/12/13 04:49:58;;;;;;;12.23;4.30;;;;;;;-2.43;73.57;93464.41;6195865;23;20004;-77
2022/12/13 04:52:23;;;;;;;14.57;5.32;;;;;;;-2.45;75.04;93463.88;6196098;23;20007;-77
2022/12/13 04:54:49;;;;;;;11.27;6.20;;;;;;;-2.48;75.97;93459.16;6196005;23;19997;-78
2022/12/13 04:57:14;;;;;;;14.40;6.32;;;;;;;-2.58;76.05;93467.63;6169525;23;20317;-78
2022/12/13 04:59:40;;;;;;;14.50;7.07;;;;;;;-2.64;76.33;93471.19;6195698;23;20001;-78
2022/12/13 05:02:07;;;;;;;13.88;6.35;;;;;;;-2.74;76.52;93471.84;6169641;23;20005;-78
2022/12/13 05:04:33;;;;;;;14.90;6.68;;;;;;;-2.87;77.09;93472.16;6169486;23;20034;-78
2022/12/13 05:06:59;;;;;;;19.27;6.15;;;;;;;-2.98;77.05;93476.44;6195701;23;20056;-76
2022/12/13 05:09:24;;;;;;;13.15;6.53;;;;;;;-3.06;76.75;93474.25;6169516;23;20000;-76
2022/12/13 05:11:50;;;;;;;12.75;5.60;;;;;;;-3.12;76.82;93470.75;6195780;23;20005;-76
2022/12/13 05:14:15;;;;;;;14.07;5.32;;;;;;;-3.16;76.67;93474.88;6195762;23;20001;-76
2022/12/13 05:16:41;;;;;;;10.85;5.82;;;;;;;-3.19;76.92;93485.78;6195923;23;20001;-77
2022/12/13 05:19:06;;;;;;;13.20;6.15;;;;;;;-3.20;77.36;93481.59;6195909;23;20052;-77
2022/12/13 05:21:33;;;;;;;14.25;6.97;;;;;;;-3.24;77.11;93480.47;6195636;23;20028;-77
2022/12/13 05:24:01;;;;;;;17.55;6.55;;;;;;;-3.18;77.84;93492.56;6195526;23;20012;-77
2022/12/13 05:26:27;;;;;;;14.95;6.05;;;;;;;-3.17;77.78;93488.16;6195644;23;20005;-76
2022/12/13 05:28:54;;;;;;;13.30;6.20;;;;;;;-3.13;77.39;93499.69;6195580;23;19993;-76
2022/12/13 05:31:20;;;;;;;12.82;5.85;;;;;;;-3.14;76.61;93487.69;6195376;23;20092;-76
2022/12/13 05:33:45;;;;;;;14.05;6.30;;;;;;;-3.14;77.45;93487.69;6195609;23;20001;-76
2022/12/13 05:36:11;;;;;;;11.68;5.85;;;;;;;-3.15;76.88;93491.31;6194869;23;20207;-76
2022/12/13 05:38:36;;;;;;;13.07;6.32;;;;;;;-3.14;76.87;93500.72;6195986;23;20000;-75
2022/12/13 05:41:05;;;;;;;17.75;7.32;;;;;;;-3.17;77.49;93509.81;6195321;23;20044;-76
2022/12/13 05:43:30;;;;;;;13.88;6.18;;;;;;;-3.12;77.50;93516.91;6169159;23;20004;-77
2022/12/13 05:45:56;;;;;;;13.23;6.13;;;;;;;-3.06;76.99;93514.13;6195531;23;19993;-77
2022/12/13 05:48:22;;;;;;;18.50;7.10;;;;;;;-2.99;76.73;93515.78;6195399;23;20039;-76
2022/12/13 05:50:47;;;;;;;17.05;7.53;;;;;;;-3.04;77.00;93514.69;6195489;23;20001;-76
2022/12/13 05:53:14;;;;;;;18.20;7.25;;;;;;;-2.98;77.15;93526.00;6195205;23;20267;-76
2022/12/13 05:55:40;;;;;;;15.70;6.95;;;;;;;-3.03;76.89;93531.94;6195280;23;20175;-77
2022/12/13 05:58:05;;;;;;;15.68;6.53;;;;;;;-2.96;77.50;93530.97;6195286;23;20005;-76
2022/12/13 06:00:31;;;;;;;17.65;7.35;;;;;;;-2.97;78.07;93534.59;6195120;23;20005;-76
2022/12/13 06:02:57;;;;;;;14.65;6.68;;;;;;;-2.90;77.76;93532.63;6195326;23;20020;-75
2022/12/13 06:05:23;;;;;;;17.10;7.32;;;;;;;-2.86;77.69;93534.53;6194985;23;20036;-77
2022/12/13 06:07:48;;;;;;;14.40;7.40;;;;;;;-2.82;77.22;93535.63;6195349;23;19997;-75
2022/12/13 06:10:14;;;;;;;17.00;8.18;;;;;;;-2.73;77.30;93536.03;6168644;23;19997;-77
2022/12/13 06:12:39;;;;;;;15.10;7.95;;;;;;;-2.68;76.89;93538.72;6195112;23;20008;-75
2022/12/13 06:15:06;;;;;;;17.33;7.40;;;;;;;-2.69;76.38;93531.91;6195281;23;20005;-76
2022/12/13 06:17:33;;;;;;;22.30;7.35;;;;;;;-2.67;76.00;93532.47;6194789;23;20008;-76
2022/12/13 06:19:59;;;;;;;17.23;7.22;;;;;;;-2.71;75.32;93533.97;6194717;23;20299;-76
2022/12/13 06:22:25;;;;;;;13.00;6.20;;;;;;;-2.76;74.81;93522.69;6194861;23;20003;-76
2022/12/13 06:24:51;;;;;;;18.30;8.50;;;;;;;-2.79;75.78;93528.38;6168244;23;19997;-76
2022/12/13 06:27:17;;;;;;;22.60;9.18;;;;;;;-2.85;75.41;93530.91;6194864;23;19993;-75
2022/12/13 06:29:42;;;;;;;23.67;8.88;;;;;;;-2.87;75.77;93537.38;6195161;23;20270;-75
2022/12/13 06:32:08;;;;;;;18.45;8.85;;;;;;;-2.87;75.85;93526.94;6194926;23;19993;-75
2022/12/13 06:34:34;;;;;;;19.17;8.10;;;;;;;-2.89;76.25;93536.81;6168751;23;20004;-77
2022/12/13 06:37:01;;;;;;;19.48;9.25;;;;;;;-2.89;75.85;93542.03;6194613;23;19997;-76
2022/12/13 06:39:28;;;;;;;18.95;7.82;;;;;;;-2.94;76.84;93544.56;6194978;23;20004;-76
2022/12/13 06:41:54;;;;;;;14.77;7.75;;;;;;;-2.98;75.58;93554.69;6194839;23;20291;-77
2022/12/13 06:44:19;;;;;;;22.75;8.50;;;;;;;-3.04;75.77;93545.19;6194846;23;19996;-76
2022/12/13 06:46:45;;;;;;;18.10;8.55;;;;;;;-3.09;76.23;93543.31;6194742;23;20044;-76
2022/12/13 06:49:10;;;;;;;18.85;7.63;;;;;;;-2.95;76.88;93548.19;6194574;23;20083;-75
2022/12/13 06:51:36;;;;;;;19.75;8.82;;;;;;;-2.98;76.64;93543.47;6194655;23;19997;-77
2022/12/13 06:54:01;;;;;;;13.48;7.22;;;;;;;-3.05;76.61;93551.44;6194536;23;20294;-77
2022/12/13 06:56:27;;;;;;;15.70;8.00;;;;;;;-2.97;77.40;93552.84;6194532;23;20057;-76
2022/12/13 06:58:53;;;;;;;21.52;8.70;;;;;;;-2.88;77.30;93551.44;6194596;23;19993;-77
2022/12/13 07:01:18;;;;;;;18.48;8.57;;;;;;;-2.80;75.49;93542.44;6194756;23;19996;-76
2022/12/13 07:03:44;;;;;;;16.27;7.25;;;;;;;-2.70;73.69;93546.00;6194688;23;20015;-77
2022/12/13 07:06:14;;;;;;;17.85;8.32;;;;;;;-2.65;73.58;93551.28;6194835;23;20009;-76
2022/12/13 07:08:40;;;;;;;17.73;8.63;;;;;;;-2.60;73.98;93560.22;6194591;23;20008;-77
2022/12/13 07:11:06;;;;;;;21.10;9.57;;;;;;;-2.56;74.56;93562.13;6194941;23;20005;-77
2022/12/13 07:13:33;;;;;;;16.88;8.65;;;;;;;-2.50;74.08;93555.94;6194776;23;20188;-76
2022/12/13 07:15:59;;;;;;;20.23;8.52;;;;;;;-2.47;74.21;93565.88;6168359;23;20302;-78
2022/12/13 07:18:25;;;;;;;21.58;9.55;;;;;;;-2.44;74.24;93562.81;6194525;23;20042;-78
2022/12/13 07:20:50;;;;;;;19.20;9.82;;;;;;;-2.44;74.25;93569.88;6194682;23;20001;-75
2022/12/13 07:23:16;;;;;;;29.75;10.23;;;;;;;-2.42;74.22;93573.81;6194734;23;20199;-75
2022/12/13 07:25:41;;;;;;;30.15;11.18;;;;;;;-2.40;74.70;93567.53;6194363;23;20342;-75
2022/12/13 07:28:08;;;;;;;26.90;10.25;;;;;;;-2.43;74.34;93564.38;6194526;23;20234;-75
2022/12/13 07:30:38;;;;;;;26.00;10.23;;;;;;;-2.47;74.55;93571.09;6194459;23;20008;-75
2022/12/13 07:33:05;;;;;;;19.48;9.15;;;;;;;-2.42;74.01;93578.25;6194492;23;20043;-75
2022/12/13 07:35:31;;;;;;;24.17;9.50;;;;;;;-2.39;74.29;93575.13;6194160;23;20001;-75
2022/12/13 07:37:57;;;;;;;18.40;9.02;;;;;;;-2.31;74.22;93576.56;6194127;23;20013;-76
2022/12/13 07:40:24;;;;;;;19.75;9.75;;;;;;;-2.25;73.78;93575.59;6194387;23;20001;-75
2022/12/13 07:42:53;;;;;;;16.70;8.73;;;;;;;-2.14;73.19;93577.31;6194372;23;19993;-76
2022/12/13 07:45:19;;;;;;;23.95;8.82;;;;;;;-2.09;73.00;93584.44;6194346;23;20044;-76
2022/12/13 07:47:45;;;;;;;17.90;9.55;;;;;;;-2.05;72.25;93573.25;6194434;23;20191;-75
2022/12/13 07:50:11;;;;;;;22.55;9.75;;;;;;;-2.02;72.19;93577.22;6194836;23;20001;-76
2022/12/13 07:52:37;;;;;;;18.50;9.32;;;;;;;-2.06;70.53;93591.78;6194664;23;20001;-76
2022/12/13 07:55:03;;;;;;;25.77;8.85;;;;;;;-2.02;71.69;93585.03;6194448;23;20001;-75
2022/12/13 07:57:29;;;;;;;19.15;9.55;;;;;;;-1.97;71.50;93581.69;6194391;23;19993;-76
2022/12/13 07:59:55;;;;;;;20.90;9.82;;;;;;;-2.00;71.67;93585.59;6194302;23;20247;-77
2022/12/13 08:02:20;;;;;;;21.40;9.68;;;;;;;-2.02;72.28;93588.44;6194395;23;19997;-76
2022/12/13 08:04:46;;;;;;;21.60;9.80;;;;;;;-1.99;71.28;93589.78;6194515;23;20008;-76
2022/12/13 08:07:11;;;;;;;21.75;10.48;;;;;;;-2.04;69.75;93594.94;6194333;23;20047;-76
2022/12/13 08:09:37;;;;;;;23.55;10.10;;;;;;;-2.11;68.90;93604.78;6194465;23;20011;-76
2022/12/13 08:12:04;;;;;;;19.73;10.05;;;;;;;-2.10;70.01;93608.97;6194455;23;19997;-76
2022/12/13 08:14:30;;;;;;;21.33;10.60;;;;;;;-2.11;71.65;93602.94;6194504;23;20017;-76
2022/12/13 08:16:55;;;;;;;22.73;11.38;;;;;;;-2.02;71.08;93616.38;6194346;23;20314;-77
2022/12/13 08:19:21;;;;;;;26.40;11.27;;;;;;;-1.94;71.81;93615.19;6194288;23;20055;-76
2022/12/13 08:21:46;;;;;;;24.60;10.88;;;;;;;-1.87;71.30;93611.38;6194428;23;20020;-76
2022/12/13 08:24:12;;;;;;;20.13;9.43;;;;;;;-1.71;71.45;93619.38;6194400;23;20005;-76
2022/12/13 08:26:37;;;;;;;21.52;9.77;;;;;;;-1.66;70.33;93616.84;6194655;23;19993;-77
2022/12/13 08:29:03;;;;;;;18.85;8.90;;;;;;;-1.63;68.17;93627.63;6194153;23;19997;-77
2022/12/13 08:31:29;;;;;;;20.60;9.93;;;;;;;-1.66;68.35;93619.47;6194323;23;20077;-77
2022/12/13 08:33:55;;;;;;;32.85;13.20;;;;;;;-1.62;69.00;93616.13;6194457;23;20005;-77
2022/12/13 08:36:23;;;;;;;22.48;10.18;;;;;;;-1.60;68.52;93610.66;6194135;23;19999;-76
2022/12/13 08:38:49;;;;;;;19.40;9.23;;;;;;;-1.51;67.87;93611.78;6194423;23;20040;-76
2022/12/13 08:41:14;;;;;;;25.80;11.73;;;;;;;-1.41;68.19;93606.69;6194150;23;20291;-77
2022/12/13 08:43:40;;;;;;;20.85;9.57;;;;;;;-1.28;67.58;93607.38;6168221;23;20012;-78
2022/12/13 08:46:06;;;;;;;20.90;9.40;;;;;;;-1.19;67.44;93592.81;6194243;23;20380;-78
2022/12/13 08:48:32;;;;;;;20.95;8.57;;;;;;;-1.10;66.67;93593.16;6194456;23;20155;-78
2022/12/13 08:51:03;;;;;;;26.05;9.52;;;;;;;-1.14;65.67;93589.44;6194066;23;20012;-77
2022/12/13 08:53:28;;;;;;;24.20;10.18;;;;;;;-1.06;66.96;93581.97;6194404;23;20001;-78
2022/12/13 08:55:59;;;;;;;17.30;8.30;;;;;;;-1.05;66.67;93586.13;6194118;23;20031;-77
2022/12/13 08:58:24;;;;;;;21.88;8.75;;;;;;;-1.01;66.40;93587.22;6194430;23;20017;-78
2022/12/13 09:00:50;;;;;;;20.15;7.75;;;;;;;-1.08;65.29;93576.19;6194361;23;20001;-77
2022/12/13 09:03:15;;;;;;;17.60;7.63;;;;;;;-1.06;64.57;93579.34;6194276;23;20004;-77
2022/12/13 09:05:41;;;;;;;22.02;9.50;;;;;;;-1.13;65.88;93581.34;6167856;23;20075;-77
2022/12/13 09:08:06;;;;;;;17.63;8.23;;;;;;;-1.21;66.10;93571.34;6194468;23;20080;-78
2022/12/13 09:10:32;;;;;;;23.75;10.18;;;;;;;-1.22;67.31;93573.16;6194567;23;20299;-77
2022/12/13 09:13:00;;;;;;;25.60;8.77;;;;;;;-1.17;66.41;93569.81;6195801;23;19997;-78
2022/12/13 09:15:27;;;;;;;20.10;9.73;;;;;;;-1.13;65.53;93570.09;6196003;23;20001;-77
2022/12/13 09:17:52;;;;;;;25.75;9.25;;;;;;;-1.15;65.72;93559.09;6196177;23;20043;-77
2022/12/13 09:20:18;;;;;;;28.77;12.80;;;;;;;-1.14;65.01;93561.47;6169912;23;20329;-78
2022/12/13 09:22:43;;;;;;;23.05;10.30;;;;;;;-1.11;65.26;93560.97;6169509;23;19997;-79
2022/12/13 09:25:09;;;;;;;23.17;10.20;;;;;;;-0.96;64.91;93551.69;6196005;23;20071;-78
2022/12/13 09:27:34;;;;;;;31.70;13.80;;;;;;;-0.91;65.64;93551.75;6169578;23;20039;-77
2022/12/13 09:30:00;;;;;;;20.67;10.55;;;;;;;-0.81;65.89;93557.06;6169371;23;20024;-78
2022/12/13 09:32:27;;;;;;;22.35;11.07;;;;;;;-0.66;65.31;93541.47;6195513;23;20207;-76
2022/12/13 09:34:53;;;;;;;23.80;10.95;;;;;;;-0.53;65.64;93544.69;6195635;23;20001;-77
2022/12/13 09:37:18;;;;;;;19.08;9.73;;;;;;;-0.42;64.25;93546.34;6195558;23;20020;-77
2022/12/13 09:39:44;;;;;;;23.40;9.82;;;;;;;-0.37;63.95;93541.13;6195717;23;20001;-77
2022/12/13 09:42:19;;;;;;;25.05;11.20;;;;;;;-0.22;64.29;93545.69;6169232;23;19997;-77
2022/12/13 09:44:51;;;;;;;18.73;9.50;;;;;;;-0.11;64.46;93536.81;6169397;23;20005;-78
2022/12/13 09:47:30;;;;;;;22.60;9.52;;;;;;;-0.02;63.06;93537.94;6169267;23;20211;-77
2022/12/13 09:49:57;;;;;;;25.70;10.95;;;;;;;0.11;63.26;93528.03;6195511;23;19997;-76
2022/12/13 09:52:24;;;;;;;21.08;9.90;;;;;;;0.15;63.03;93535.13;6195781;23;19993;-76
2022/12/13 09:54:54;;;;;;;21.05;10.50;;;;;;;0.11;62.34;93538.50;6195740;23;20039;-76
2022/12/13 09:57:29;;;;;;;17.02;9.48;;;;;;;0.09;64.05;93541.38;6195658;23;20012;-77
2022/12/13 09:59:55;;;;;;;25.45;9.68;;;;;;;0.24;64.94;93535.41;6169282;23;20032;-77
2022/12/13 10:02:27;;;;;;;17.60;7.70;;;;;;;0.41;61.55;93548.34;6169187;23;19997;-77
2022/12/13 10:04:56;;;;;;;19.58;8.68;;;;;;;0.42;62.37;93528.13;6195118;23;20043;-77
2022/12/13 10:07:23;;;;;;;25.38;9.60;;;;;;;0.42;61.43;93538.63;6195583;23;20032;-76
2022/12/13 10:10:00;;;;;;;15.80;7.60;;;;;;;0.43;61.73;93532.31;6195563;23;20001;-77
2022/12/13 10:12:27;;;;;;;15.27;7.30;;;;;;;0.54;60.91;93533.94;6195296;23;20001;-77
2022/12/13 10:14:59;;;;;;;16.58;7.57;;;;;;;0.66;59.38;93528.47;6195331;23;20005;-77
2022/12/13 10:17:28;;;;;;;16.33;8.38;;;;;;;0.62;57.12;93528.19;6195149;23;19997;-77
2022/12/13 10:19:53;;;;;;;15.85;7.63;;;;;;;0.62;57.25;93527.41;6195252;23;20001;-77
2022/12/13 10:22:21;;;;;;;14.85;7.38;;;;;;;0.56;58.07;93508.25;6168795;23;19997;-77
2022/12/13 10:25:04;;;;;;;11.73;5.10;;;;;;;0.54;56.76;93529.47;6195316;23;19997;-77
2022/12/13 10:27:33;;;;;;;16.73;6.32;;;;;;;0.54;57.48;93523.44;6195169;23;20008;-76
2022/12/13 10:30:12;;;;;;;15.50;6.20;;;;;;;0.56;56.20;93509.03;6194977;23;20012;-77
2022/12/13 10:32:48;;;;;;;14.57;6.88;;;;;;;0.54;54.83;93498.00;6195304;23;20287;-77
2022/12/13 10:35:21;;;;;;;13.15;6.03;;;;;;;0.48;56.24;93483.31;6195039;23;20005;-77
2022/12/13 10:37:47;;;;;;;11.32;5.50;;;;;;;0.43;55.78;93475.44;6194996;23;20016;-77
2022/12/13 10:40:33;;;;;;;15.88;6.53;;;;;;;0.56;56.30;93476.78;6194501;23;20008;-77
2022/12/13 10:43:14;;;;;;;18.42;6.95;;;;;;;0.67;55.34;93478.38;6194930;23;20004;-77
2022/12/13 10:45:41;;;;;;;16.02;6.45;;;;;;;0.76;54.62;93470.78;6195221;23;19997;-76
2022/12/13 10:48:35;;;;;;;14.35;7.50;;;;;;;0.85;55.95;93474.44;6195106;23;20298;-77
2022/12/13 10:51:02;;;;;;;17.40;8.20;;;;;;;0.89;56.80;93467.63;6195126;23;20004;-77
2022/12/13 10:53:31;;;;;;;16.58;7.97;;;;;;;0.91;57.48;93470.78;6194847;23;20321;-77
2022/12/13 10:55:58;;;;;;;15.77;7.10;;;;;;;0.93;56.80;93471.28;6194900;23;20319;-77
2022/12/13 10:58:40;;;;;;;16.08;7.25;;;;;;;0.93;57.99;93465.25;6194873;23;20004;-77
2022/12/13 11:01:20;;;;;;;14.23;7.25;;;;;;;1.00;57.29;93458.72;6194506;23;19996;-77
2022/12/13 11:04:18;;;;;;;13.80;6.95;;;;;;;1.04;58.01;93469.47;6168300;23;20028;-77
2022/12/13 11:06:46;;;;;;;11.40;6.70;;;;;;;1.03;58.34;93459.25;6194348;23;20023;-77
2022/12/13 11:09:23;;;;;;;11.57;5.78;;;;;;;0.96;55.71;93465.53;6194612;23;20172;-77
2022/12/13 11:11:51;;;;;;;15.68;7.25;;;;;;;0.91;55.30;93459.50;6194398;23;20001;-77
2022/12/13 11:14:21;;;;;;;18.40;6.82;;;;;;;0.89;55.81;93467.63;6194385;23;19997;-77
2022/12/13 11:17:09;;;;;;;13.25;5.90;;;;;;;0.87;55.73;93446.09;6194796;23;20250;-77
2022/12/13 11:19:38;;;;;;;18.60;6.88;;;;;;;0.83;55.15;93437.19;6194746;23;20016;-76
2022/12/13 11:22:06;;;;;;;9.77;4.97;;;;;;;0.79;54.87;93444.00;6168520;23;20163;-78
2022/12/13 11:24:35;;;;;;;10.02;4.72;;;;;;;0.77;53.33;93438.22;6168459;23;20005;-78
2022/12/13 11:27:19;;;;;;;12.65;5.78;;;;;;;0.80;55.61;93443.75;6194999;23;19989;-78
2022/12/13 11:29:44;;;;;;;13.48;6.70;;;;;;;0.83;56.29;93437.19;6194810;23;20252;-78
2022/12/13 11:32:30;;;;;;;11.27;5.95;;;;;;;0.82;56.79;93443.50;6194807;23;20001;-74